Bridgewater, Maine
Current Conditions -  °F | °C
As of 11:15 PM on Tuesday 25 Nov 2014 (Local Time) from KPQI Reporting Station
Overcast Overcast  
Wind Chill:   Ceiling: 4800
Heat Index:   Visibility: 10mi
Dew Point: -4°   Wind: 9mph
Humidity: 49%   Direction: 230°SW
Pressure: 29.87"   Gusts: NA
Location:  46.43°N, 67.84°W
Report Text: KPQI 260415Z AUTO 23008KT 10SM BKN048 OVC055 06/M04 A2987 RMK AO1
Loading
Personal Weather Stations






























Interactive Weather Map New forecast layout! Learn more

10-Day Weather Forecast

Advertisements
Track Severe Weather on mobile